createdAt,value
2018-05-21T00:01:37.046Z,14.10
2018-05-21T00:04:04.539Z,14.10
2018-05-21T00:06:32.070Z,14.10
2018-05-21T00:08:59.557Z,14.10
2018-05-21T00:11:27.081Z,14.00
2018-05-21T00:13:54.577Z,14.10
2018-05-21T00:16:22.868Z,13.90
2018-05-21T00:18:51.121Z,13.90
2018-05-21T00:21:18.680Z,13.90
2018-05-21T00:23:46.173Z,13.90
2018-05-21T00:26:13.683Z,13.90
2018-05-21T00:28:41.225Z,13.90
2018-05-21T00:31:08.709Z,13.90
2018-05-21T00:33:36.233Z,13.90
2018-05-21T00:36:03.731Z,13.90
2018-05-21T00:38:31.261Z,13.80
2018-05-21T00:40:58.755Z,13.80
2018-05-21T00:43:26.289Z,13.80
2018-05-21T00:45:53.788Z,13.80
2018-05-21T00:48:21.305Z,13.80
2018-05-21T00:50:48.790Z,13.70
2018-05-21T00:53:17.090Z,13.70
2018-05-21T00:55:44.577Z,13.70
2018-05-21T00:58:12.097Z,13.70
2018-05-21T01:00:39.586Z,13.70
2018-05-21T01:03:07.137Z,13.70
2018-05-21T01:05:34.629Z,13.70
2018-05-21T01:08:02.190Z,13.70
2018-05-21T01:10:29.690Z,13.70
2018-05-21T01:12:57.176Z,13.60
2018-05-21T01:15:24.702Z,13.60
2018-05-21T01:17:52.205Z,13.60
2018-05-21T01:20:19.733Z,13.50
2018-05-21T01:22:47.229Z,13.50
2018-05-21T01:25:15.869Z,13.50
2018-05-21T01:27:43.357Z,13.50
2018-05-21T01:30:10.881Z,13.40
2018-05-21T01:32:39.141Z,13.30
2018-05-21T01:35:06.669Z,13.30
2018-05-21T01:37:34.158Z,13.40
2018-05-21T01:40:01.674Z,13.30
2018-05-21T01:42:29.165Z,13.30
2018-05-21T01:44:56.681Z,13.30
2018-05-21T01:47:24.194Z,13.20
2018-05-21T01:49:52.504Z,13.20
2018-05-21T01:52:19.994Z,13.20
2018-05-21T01:54:47.501Z,13.20
2018-05-21T01:57:15.007Z,13.20
2018-05-21T01:59:42.491Z,13.20
2018-05-21T02:02:10.007Z,13.20
2018-05-21T02:04:37.510Z,13.10
2018-05-21T02:07:05.839Z,13.10
2018-05-21T02:09:33.285Z,13.10
2018-05-21T02:12:00.785Z,13.10
2018-05-21T02:14:28.313Z,13.10
2018-05-21T02:16:55.796Z,13.20
2018-05-21T02:19:23.304Z,13.20
2018-05-21T02:21:50.790Z,13.20
2018-05-21T02:24:18.299Z,13.20
2018-05-21T02:26:46.555Z,13.20
2018-05-21T02:29:14.041Z,13.20
2018-05-21T02:31:41.627Z,13.20
2018-05-21T02:34:09.882Z,13.30
2018-05-21T02:36:37.365Z,13.20
2018-05-21T02:39:05.781Z,13.30
2018-05-21T02:41:34.046Z,13.30
2018-05-21T02:44:01.581Z,13.20
2018-05-21T02:46:29.074Z,13.20
2018-05-21T02:48:56.614Z,13.20
2018-05-21T02:51:24.099Z,13.20
2018-05-21T02:53:52.263Z,13.20
2018-05-21T02:56:19.757Z,13.20
2018-05-21T02:58:47.280Z,13.10
2018-05-21T03:01:14.786Z,13.10
2018-05-21T03:03:42.326Z,13.10
2018-05-21T03:06:09.822Z,13.10
2018-05-21T03:08:37.361Z,13.10
2018-05-21T03:11:04.854Z,13.10
2018-05-21T03:13:32.377Z,13.10
2018-05-21T03:15:59.869Z,13.10
2018-05-21T03:18:28.126Z,13.10
2018-05-21T03:20:55.663Z,13.10
2018-05-21T03:23:23.157Z,13.10
2018-05-21T03:25:50.677Z,13.10
2018-05-21T03:28:18.945Z,13.10
2018-05-21T03:30:46.454Z,13.10
2018-05-21T03:33:13.985Z,13.10
2018-05-21T03:35:41.502Z,13.20
2018-05-21T03:38:09.775Z,13.30
2018-05-21T03:40:37.306Z,13.30
2018-05-21T03:43:04.821Z,13.40
2018-05-21T03:45:32.337Z,13.40
2018-05-21T03:47:59.835Z,13.40
2018-05-21T03:50:27.362Z,13.40
2018-05-21T03:52:54.860Z,13.50
2018-05-21T03:55:22.385Z,13.50
2018-05-21T03:57:50.672Z,13.50
2018-05-21T04:00:30.893Z,13.50
2018-05-21T04:03:10.093Z,13.50
2018-05-21T04:05:38.398Z,13.50
2018-05-21T04:08:05.898Z,13.50
2018-05-21T04:10:33.393Z,13.50
2018-05-21T04:13:00.916Z,13.50
2018-05-21T04:15:28.414Z,13.50
2018-05-21T04:17:55.933Z,13.50
2018-05-21T04:20:23.426Z,13.50
2018-05-21T04:22:50.950Z,13.60
2018-05-21T04:25:18.437Z,13.60
2018-05-21T04:27:46.721Z,13.70
2018-05-21T04:30:14.222Z,13.70
2018-05-21T04:32:41.740Z,13.70
2018-05-21T04:35:09.222Z,13.70
2018-05-21T04:37:36.745Z,13.70
2018-05-21T04:40:04.221Z,13.70
2018-05-21T04:42:31.747Z,13.70
2018-05-21T04:44:59.242Z,13.80
2018-05-21T04:47:27.530Z,13.80
2018-05-21T04:49:55.820Z,13.90
2018-05-21T04:52:23.323Z,13.90
2018-05-21T04:54:50.849Z,14.00
2018-05-21T04:57:19.117Z,14.30
2018-05-21T04:59:46.655Z,14.30
2018-05-21T05:02:14.136Z,14.40
2018-05-21T05:04:41.671Z,14.40
2018-05-21T05:07:09.157Z,14.40
2018-05-21T05:09:36.684Z,14.40
2018-05-21T05:12:04.166Z,14.40
2018-05-21T05:14:32.450Z,14.60
2018-05-21T05:16:59.937Z,14.60
2018-05-21T05:19:28.227Z,14.90
2018-05-21T05:21:56.481Z,15.10
2018-05-21T05:24:24.008Z,15.10
2018-05-21T05:26:51.502Z,15.20
2018-05-21T05:29:19.015Z,15.40
2018-05-21T05:31:47.264Z,15.60
2018-05-21T05:34:14.813Z,15.60
2018-05-21T05:36:42.914Z,15.70
2018-05-21T05:39:10.396Z,15.90
2018-05-21T05:41:37.905Z,16.10
2018-05-21T05:44:05.385Z,16.70
2018-05-21T05:46:33.666Z,19.00
2018-05-21T05:49:01.918Z,20.00
2018-05-21T05:51:29.439Z,20.00
2018-05-21T05:53:57.689Z,21.30
2018-05-21T05:56:25.205Z,21.30
2018-05-21T05:58:53.441Z,24.50
2018-05-21T06:01:20.957Z,24.40
2018-05-21T06:03:49.194Z,26.10
2018-05-21T06:06:16.701Z,26.10
2018-05-21T06:08:44.185Z,26.70
2018-05-21T06:11:12.462Z,27.80
2018-05-21T06:13:40.011Z,27.80
2018-05-21T06:16:07.471Z,27.30
2018-05-21T06:18:34.951Z,26.50
2018-05-21T06:21:02.466Z,26.10
2018-05-21T06:23:30.713Z,26.10
2018-05-21T06:25:58.345Z,26.10
2018-05-21T06:28:25.733Z,26.80
2018-05-21T06:30:53.237Z,27.20
2018-05-21T06:33:20.719Z,27.20
2018-05-21T06:35:48.235Z,27.40
2018-05-21T06:38:15.769Z,27.80
2018-05-21T06:43:17.927Z,28.20
2018-05-21T06:45:45.405Z,29.00
2018-05-21T06:48:12.921Z,28.90
2018-05-21T06:50:40.455Z,29.10
2018-05-21T06:53:07.994Z,29.10
2018-05-21T06:55:35.469Z,29.00
2018-05-21T06:58:02.993Z,29.20
2018-05-21T07:00:30.478Z,29.30
2018-05-21T07:02:58.772Z,29.30
2018-05-21T07:05:26.260Z,29.30
2018-05-21T07:07:53.863Z,29.10
2018-05-21T07:10:21.280Z,29.00
2018-05-21T07:12:48.793Z,28.70
2018-05-21T07:15:16.272Z,29.00
2018-05-21T07:17:43.789Z,30.30
2018-05-21T07:20:11.275Z,31.10
2018-05-21T07:22:39.585Z,31.60
2018-05-21T07:25:07.074Z,31.60
2018-05-21T07:27:34.564Z,32.40
2018-05-21T07:30:02.082Z,31.50
2018-05-21T07:32:30.336Z,29.90
2018-05-21T07:34:57.854Z,29.90
2018-05-21T07:37:25.341Z,30.50
2018-05-21T07:39:52.854Z,31.30
2018-05-21T07:42:20.344Z,31.20
2018-05-21T07:44:48.725Z,30.40
2018-05-21T07:47:16.133Z,30.40
2018-05-21T07:49:43.653Z,30.80
2018-05-21T07:52:11.139Z,31.30
2018-05-21T07:54:38.664Z,30.80
2018-05-21T07:57:06.156Z,30.20
2018-05-21T07:59:33.686Z,29.30
2018-05-21T08:02:01.165Z,29.40
2018-05-21T08:04:28.695Z,29.20
2018-05-21T08:06:56.181Z,29.30
2018-05-21T08:09:23.697Z,29.20
2018-05-21T08:11:51.191Z,29.30
2018-05-21T08:14:18.729Z,29.40
2018-05-21T08:16:47.016Z,28.70
2018-05-21T08:19:14.498Z,28.70
2018-05-21T08:21:42.021Z,29.60
2018-05-21T08:24:09.501Z,29.50
2018-05-21T08:26:37.790Z,29.40
2018-05-21T08:29:06.038Z,30.00
2018-05-21T08:31:33.571Z,29.90
2018-05-21T08:34:01.113Z,29.90
2018-05-21T08:36:28.638Z,30.00
2018-05-21T08:38:56.129Z,29.70
2018-05-21T08:41:23.654Z,30.30
2018-05-21T08:43:51.142Z,30.60
2018-05-21T08:46:18.670Z,30.30
2018-05-21T08:48:46.982Z,28.20
2018-05-21T08:51:14.453Z,28.20
2018-05-21T08:53:41.943Z,28.50
2018-05-21T08:56:09.486Z,27.70
2018-05-21T08:58:37.827Z,27.20
2018-05-21T09:01:05.289Z,27.20
2018-05-21T09:03:32.785Z,27.60
2018-05-21T09:06:00.267Z,28.10
2018-05-21T09:08:27.787Z,28.30
2018-05-21T09:10:55.278Z,28.50
2018-05-21T09:13:22.799Z,28.10
2018-05-21T09:15:51.047Z,27.90
2018-05-21T09:18:18.567Z,27.90
2018-05-21T09:20:46.062Z,27.70
2018-05-21T09:23:13.601Z,28.00
2018-05-21T09:25:43.033Z,28.20
2018-05-21T09:28:10.653Z,28.20
2018-05-21T09:30:38.143Z,28.00
2018-05-21T09:33:05.675Z,28.00
2018-05-21T09:35:33.170Z,28.30
2018-05-21T09:38:00.698Z,28.60
2018-05-21T09:40:28.174Z,29.10
2018-05-21T09:42:55.697Z,29.50
2018-05-21T09:45:23.194Z,30.10
2018-05-21T09:47:51.486Z,30.70
2018-05-21T09:50:19.735Z,30.40
2018-05-21T09:52:47.245Z,30.40
2018-05-21T09:55:14.778Z,29.20
2018-05-21T09:57:42.270Z,29.30
2018-05-21T10:00:09.842Z,29.10
2018-05-21T10:02:37.342Z,29.10
2018-05-21T10:05:04.982Z,28.40
2018-05-21T10:07:32.501Z,28.60
2018-05-21T10:10:00.129Z,29.00
2018-05-21T10:12:28.454Z,29.80
2018-05-21T10:14:55.966Z,29.80
2018-05-21T10:17:23.447Z,29.40
2018-05-21T10:19:51.041Z,28.70
2018-05-21T10:22:18.533Z,28.10
2018-05-21T10:24:46.852Z,27.10
2018-05-21T10:27:14.343Z,27.10
2018-05-21T10:29:41.827Z,27.40
2018-05-21T10:32:09.337Z,27.60
2018-05-21T10:34:37.593Z,27.30
2018-05-21T10:37:05.161Z,27.20
2018-05-21T10:39:32.650Z,27.70
2018-05-21T10:42:00.174Z,27.50
2018-05-21T10:44:27.656Z,27.10
2018-05-21T10:46:55.242Z,27.30
2018-05-21T10:49:22.893Z,26.80
2018-05-21T10:51:50.429Z,26.80
2018-05-21T10:54:18.934Z,26.60
2018-05-21T10:56:57.816Z,26.20
2018-05-21T10:59:25.334Z,26.00
2018-05-21T11:01:52.864Z,25.90
2018-05-21T11:04:20.366Z,25.50
2018-05-21T11:06:48.645Z,25.70
2018-05-21T11:09:16.131Z,25.70
2018-05-21T11:11:43.691Z,25.70
2018-05-21T11:14:11.177Z,25.70
2018-05-21T11:16:39.422Z,26.50
2018-05-21T11:19:06.974Z,26.50
2018-05-21T11:21:34.458Z,26.70
2018-05-21T11:24:02.024Z,26.70
2018-05-21T11:26:29.598Z,26.70
2018-05-21T11:28:57.139Z,26.30
2018-05-21T11:31:24.626Z,26.60
2018-05-21T11:33:52.221Z,26.50
2018-05-21T11:36:19.696Z,26.40
2018-05-21T11:38:48.151Z,26.40
2018-05-21T11:41:15.630Z,26.60
2018-05-21T11:43:43.290Z,26.80
2018-05-21T11:46:11.579Z,26.20
2018-05-21T11:48:39.101Z,26.20
2018-05-21T11:51:06.623Z,26.20
2018-05-21T11:53:34.929Z,26.80
2018-05-21T11:56:02.417Z,26.80
2018-05-21T11:58:29.954Z,26.90
2018-05-21T12:00:57.462Z,27.00
2018-05-21T12:03:24.945Z,26.70
2018-05-21T12:05:52.453Z,26.70
2018-05-21T12:08:19.930Z,26.30
2018-05-21T12:10:47.449Z,26.00
2018-05-21T12:13:14.932Z,25.90
2018-05-21T12:15:42.445Z,26.00
2018-05-21T12:18:10.705Z,26.00
2018-05-21T12:20:38.237Z,26.00
2018-05-21T12:23:05.727Z,26.10
2018-05-21T12:25:33.258Z,26.10
2018-05-21T12:28:00.740Z,26.10
2018-05-21T12:30:28.253Z,26.00
2018-05-21T12:32:55.738Z,25.90
2018-05-21T12:35:23.217Z,25.80
2018-05-21T12:37:51.525Z,25.50
2018-05-21T12:40:19.819Z,25.60
2018-05-21T12:42:47.309Z,25.60
2018-05-21T12:45:14.829Z,25.50
2018-05-21T12:47:42.313Z,25.60
2018-05-21T12:50:09.861Z,25.70
2018-05-21T12:52:37.340Z,25.80
2018-05-21T12:55:04.827Z,25.80
2018-05-21T12:57:33.126Z,25.90
2018-05-21T13:00:01.401Z,26.10
2018-05-21T13:02:28.917Z,26.00
2018-05-21T13:04:56.421Z,26.20
2018-05-21T13:07:23.943Z,26.50
2018-05-21T13:09:52.186Z,26.90
2018-05-21T13:12:19.703Z,26.90
2018-05-21T13:14:47.189Z,27.20
2018-05-21T13:17:14.718Z,27.20
2018-05-21T13:19:42.204Z,27.10
2018-05-21T13:22:10.495Z,27.30
2018-05-21T13:24:37.989Z,27.30
2018-05-21T13:27:05.505Z,27.60
2018-05-21T13:29:32.989Z,27.50
2018-05-21T13:32:00.514Z,27.30
2018-05-21T13:34:27.990Z,27.10
2018-05-21T13:36:55.566Z,27.10
2018-05-21T13:39:23.042Z,27.30
2018-05-21T13:41:50.524Z,27.10
2018-05-21T13:44:18.045Z,26.80
2018-05-21T13:46:46.305Z,26.80
2018-05-21T13:49:13.828Z,26.80
2018-05-21T13:51:41.322Z,27.10
2018-05-21T13:54:08.847Z,27.20
2018-05-21T13:56:37.105Z,27.30
2018-05-21T13:59:04.657Z,27.30
2018-05-21T14:01:32.212Z,27.40
2018-05-21T14:03:59.740Z,27.60
2018-05-21T14:06:27.989Z,27.70
2018-05-21T14:08:55.513Z,27.70
2018-05-21T14:11:23.760Z,27.40
2018-05-21T14:13:51.281Z,27.40
2018-05-21T14:16:18.772Z,27.20
2018-05-21T14:18:46.296Z,27.30
2018-05-21T14:21:13.788Z,27.40
2018-05-21T14:23:42.070Z,27.50
2018-05-21T14:26:10.321Z,27.70
2018-05-21T14:28:37.846Z,27.60
2018-05-21T14:31:05.357Z,28.00
2018-05-21T14:33:32.840Z,27.90
2018-05-21T14:36:00.358Z,27.70
2018-05-21T14:38:27.844Z,27.60
2018-05-21T14:40:55.369Z,27.30
2018-05-21T14:43:23.633Z,26.70
2018-05-21T14:45:51.182Z,26.70
2018-05-21T14:48:18.739Z,26.60
2018-05-21T14:50:46.211Z,26.60
2018-05-21T14:53:13.693Z,26.70
2018-05-21T14:55:41.205Z,26.70
2018-05-21T14:58:08.688Z,26.80
2018-05-21T15:00:36.991Z,26.90
2018-05-21T15:03:05.242Z,26.90
2018-05-21T15:05:32.734Z,26.80
2018-05-21T15:08:00.245Z,26.80
2018-05-21T15:10:27.725Z,27.00
2018-05-21T15:12:55.241Z,27.30
2018-05-21T15:15:22.721Z,27.50
2018-05-21T15:17:50.236Z,27.70
2018-05-21T15:20:17.712Z,28.00
2018-05-21T15:22:45.289Z,27.90
2018-05-21T15:25:12.765Z,27.70
2018-05-21T15:27:40.349Z,27.60
2018-05-21T15:30:07.826Z,27.50
2018-05-21T15:32:35.337Z,27.60
2018-05-21T15:35:03.598Z,27.20
2018-05-21T15:37:31.134Z,27.20
2018-05-21T15:39:58.614Z,27.00
2018-05-21T15:42:26.113Z,27.00
2018-05-21T15:44:53.655Z,27.40
2018-05-21T15:47:21.153Z,27.70
2018-05-21T15:49:48.665Z,27.70
2018-05-21T15:52:16.916Z,27.70
2018-05-21T15:54:44.437Z,27.70
2018-05-21T15:57:11.929Z,27.70
2018-05-21T15:59:39.449Z,27.40
2018-05-21T16:02:07.705Z,27.50
2018-05-21T16:04:35.217Z,27.40
2018-05-21T16:07:03.469Z,27.50
2018-05-21T16:09:30.982Z,27.40
2018-05-21T16:11:59.249Z,27.30
2018-05-21T16:14:26.761Z,27.30
2018-05-21T16:16:54.250Z,27.50
2018-05-21T16:19:21.765Z,27.40
2018-05-21T16:21:49.249Z,27.60
2018-05-21T16:24:17.529Z,27.70
2018-05-21T16:26:45.018Z,27.70
2018-05-21T16:29:13.269Z,27.50
2018-05-21T16:31:40.793Z,27.40
2018-05-21T16:34:08.281Z,27.30
2018-05-21T16:36:35.798Z,27.40
2018-05-21T16:39:03.290Z,27.40
2018-05-21T16:41:31.625Z,28.20
2018-05-21T16:43:59.838Z,28.30
2018-05-21T16:46:27.365Z,28.20
2018-05-21T16:48:54.858Z,28.10
2018-05-21T16:51:22.378Z,27.70
2018-05-21T16:53:49.874Z,27.40
2018-05-21T16:56:17.390Z,27.10
2018-05-21T16:58:44.881Z,26.80
2018-05-21T17:01:12.403Z,26.60
2018-05-21T17:03:39.885Z,26.40
2018-05-21T17:06:07.382Z,26.30
2018-05-21T17:08:34.900Z,26.30
2018-05-21T17:11:02.406Z,26.30
2018-05-21T17:13:29.950Z,26.20
2018-05-21T17:15:57.436Z,26.10
2018-05-21T17:18:24.958Z,25.90
2018-05-21T17:20:53.218Z,26.00
2018-05-21T17:23:20.758Z,26.00
2018-05-21T17:25:48.252Z,26.00
2018-05-21T17:28:15.765Z,26.00
2018-05-21T17:30:44.016Z,25.80
2018-05-21T17:33:11.536Z,25.80
2018-05-21T17:35:39.083Z,25.80
2018-05-21T17:38:06.578Z,25.80
2018-05-21T17:40:34.831Z,25.90
2018-05-21T17:43:02.370Z,25.90
2018-05-21T17:45:29.859Z,25.90
2018-05-21T17:47:57.740Z,25.80
2018-05-21T17:50:25.279Z,25.80
2018-05-21T17:52:52.765Z,25.70
2018-05-21T17:55:20.288Z,25.70
2018-05-21T17:57:48.108Z,25.70
2018-05-21T18:00:16.483Z,25.50
2018-05-21T18:02:43.980Z,25.40
2018-05-21T18:05:11.485Z,25.10
2018-05-21T18:07:39.534Z,24.60
2018-05-21T18:10:07.047Z,24.20
2018-05-21T18:12:34.542Z,23.90
2018-05-21T18:15:02.795Z,23.40
2018-05-21T18:17:30.301Z,23.30
2018-05-21T18:19:58.548Z,23.00
2018-05-21T18:22:26.928Z,23.00
2018-05-21T18:24:54.410Z,22.90
2018-05-21T18:27:22.665Z,22.80
2018-05-21T18:29:50.181Z,22.70
2018-05-21T18:32:17.694Z,22.60
2018-05-21T18:34:45.339Z,22.50
2018-05-21T18:37:12.837Z,22.40
2018-05-21T18:39:40.333Z,22.30
2018-05-21T18:42:07.865Z,22.20
2018-05-21T18:44:36.118Z,22.00
2018-05-21T18:47:03.644Z,22.00
2018-05-21T18:49:31.235Z,21.90
2018-05-21T18:51:58.749Z,21.90
2018-05-21T18:54:26.233Z,21.70
2018-05-21T18:56:54.701Z,21.60
2018-05-21T18:59:22.243Z,21.50
2018-05-21T19:01:49.758Z,21.40
2018-05-21T19:04:17.249Z,21.30
2018-05-21T19:06:45.541Z,21.10
2018-05-21T19:09:13.811Z,20.90
2018-05-21T19:11:41.382Z,20.90
2018-05-21T19:14:08.865Z,20.90
2018-05-21T19:16:36.409Z,20.80
2018-05-21T19:19:03.920Z,20.70
2018-05-21T19:21:32.325Z,20.60
2018-05-21T19:23:59.813Z,20.60
2018-05-21T19:26:27.382Z,20.60
2018-05-21T19:28:54.898Z,20.60
2018-05-21T19:31:22.390Z,20.50
2018-05-21T19:33:50.722Z,20.40
2018-05-21T19:36:18.225Z,20.40
2018-05-21T19:38:45.738Z,20.40
2018-05-21T19:41:13.234Z,20.30
2018-05-21T19:43:40.757Z,20.30
2018-05-21T19:46:08.356Z,20.20
2018-05-21T19:48:35.875Z,20.20
2018-05-21T19:51:03.373Z,20.10
2018-05-21T19:53:30.891Z,20.10
2018-05-21T19:55:58.389Z,20.10
2018-05-21T19:58:25.913Z,20.10
2018-05-21T20:00:53.399Z,20.20
2018-05-21T20:03:20.934Z,20.40
2018-05-21T20:05:48.421Z,20.40
2018-05-21T20:08:16.677Z,20.30
2018-05-21T20:10:44.194Z,20.30
2018-05-21T20:13:11.669Z,20.20
2018-05-21T20:15:39.209Z,20.20
2018-05-21T20:18:07.161Z,20.10
2018-05-21T20:20:41.497Z,20.10
2018-05-21T20:23:09.007Z,20.20
2018-05-21T20:25:36.521Z,20.10
2018-05-21T20:28:04.009Z,20.00
2018-05-21T20:30:31.504Z,19.90
2018-05-21T20:32:58.986Z,19.80
2018-05-21T20:35:27.274Z,19.60
2018-05-21T20:37:54.761Z,19.60
2018-05-21T20:40:23.045Z,19.40
2018-05-21T20:42:51.295Z,19.30
2018-05-21T20:45:18.821Z,19.30
2018-05-21T20:47:46.346Z,19.30
2018-05-21T20:50:13.868Z,19.20
2018-05-21T20:52:41.418Z,19.10
2018-05-21T20:55:09.673Z,19.00
2018-05-21T20:57:37.205Z,19.00
2018-05-21T21:00:04.693Z,19.00
2018-05-21T21:02:32.218Z,19.00
2018-05-21T21:04:59.745Z,19.00
2018-05-21T21:07:27.819Z,18.90
2018-05-21T21:09:56.362Z,18.80
2018-05-21T21:12:23.885Z,18.70
2018-05-21T21:14:51.389Z,18.60
2018-05-21T21:17:19.689Z,18.50
2018-05-21T21:19:47.261Z,18.40
2018-05-21T21:22:14.773Z,18.40
2018-05-21T21:24:42.273Z,18.30
2018-05-21T21:27:09.927Z,18.20
2018-05-21T21:29:37.416Z,18.10
2018-05-21T21:32:04.945Z,18.10
2018-05-21T21:34:32.449Z,18.10
2018-05-21T21:36:59.985Z,18.20
2018-05-21T21:39:28.242Z,18.20
2018-05-21T21:41:55.885Z,18.20
2018-05-21T21:44:23.399Z,18.20
2018-05-21T21:46:50.881Z,18.10
2018-05-21T21:49:18.398Z,18.00
2018-05-21T21:51:45.890Z,18.00
2018-05-21T21:54:13.414Z,17.90
2018-05-21T21:56:41.667Z,17.80
2018-05-21T21:59:09.177Z,17.80
2018-05-21T22:01:37.429Z,17.90
2018-05-21T22:04:04.949Z,17.90
2018-05-21T22:06:32.437Z,17.90
2018-05-21T22:08:59.955Z,17.90
2018-05-21T22:11:27.429Z,18.00
2018-05-21T22:13:55.074Z,17.90
2018-05-21T22:16:22.614Z,17.90
2018-05-21T22:18:50.094Z,17.80
2018-05-21T22:21:17.627Z,17.70
2018-05-21T22:23:45.140Z,17.70
2018-05-21T22:26:12.664Z,17.60
2018-05-21T22:28:40.147Z,17.70
2018-05-21T22:31:07.676Z,17.80
2018-05-21T22:33:35.151Z,17.80
2018-05-21T22:36:02.669Z,17.90
2018-05-21T22:38:30.150Z,18.00
2018-05-21T22:40:57.661Z,18.00
2018-05-21T22:43:25.144Z,18.10
2018-05-21T22:45:52.665Z,18.10
2018-05-21T22:48:20.153Z,18.00
2018-05-21T22:50:47.674Z,17.90
2018-05-21T22:53:15.173Z,17.80
2018-05-21T22:55:42.707Z,17.70
2018-05-21T22:58:10.194Z,17.60
2018-05-21T23:00:38.446Z,17.40
2018-05-21T23:03:05.973Z,17.30
2018-05-21T23:05:33.454Z,17.30
2018-05-21T23:08:00.969Z,17.30
2018-05-21T23:10:28.454Z,17.30
2018-05-21T23:12:55.977Z,17.30
2018-05-21T23:15:23.693Z,17.50
2018-05-21T23:17:51.217Z,17.50
2018-05-21T23:20:18.702Z,17.60
2018-05-21T23:22:46.218Z,17.60
2018-05-21T23:25:13.700Z,17.60
2018-05-21T23:27:41.973Z,17.60
2018-05-21T23:30:09.481Z,17.60
2018-05-21T23:32:36.969Z,17.60
2018-05-21T23:35:04.497Z,17.60
2018-05-21T23:37:32.021Z,17.50
2018-05-21T23:39:59.523Z,17.50
2018-05-21T23:42:27.053Z,17.40
2018-05-21T23:44:54.539Z,17.40
2018-05-21T23:47:22.066Z,17.30
2018-05-21T23:49:49.573Z,17.20
2018-05-21T23:52:17.059Z,17.10
2018-05-21T23:54:44.577Z,17.00
2018-05-21T23:57:12.849Z,17.00
2018-05-21T23:59:40.369Z,16.90
